createdAt,value
2023-02-19T00:01:17.336Z,19.45
2023-02-19T00:03:47.959Z,22.50
2023-02-19T00:06:14.763Z,22.08
2023-02-19T00:08:41.683Z,21.23
2023-02-19T00:11:10.337Z,22.27
2023-02-19T00:13:44.939Z,22.50
2023-02-19T00:16:15.647Z,23.50
2023-02-19T00:18:42.932Z,21.20
2023-02-19T00:21:10.239Z,21.00
2023-02-19T00:23:37.436Z,19.92
2023-02-19T00:26:17.289Z,22.92
2023-02-19T00:28:45.502Z,20.17
2023-02-19T00:31:15.590Z,20.88
2023-02-19T00:33:42.442Z,22.27
2023-02-19T00:36:09.423Z,18.17
2023-02-19T00:38:36.876Z,18.10
2023-02-19T00:41:19.212Z,17.85
2023-02-19T00:43:55.764Z,17.80
2023-02-19T00:46:24.669Z,17.42
2023-02-19T00:48:52.683Z,20.25
2023-02-19T00:51:20.167Z,22.15
2023-02-19T00:53:47.034Z,21.33
2023-02-19T00:56:13.828Z,19.13
2023-02-19T00:58:40.655Z,21.30
2023-02-19T01:01:07.901Z,24.67
2023-02-19T01:03:35.656Z,19.73
2023-02-19T01:06:02.700Z,22.15
2023-02-19T01:08:31.183Z,22.70
2023-02-19T01:10:58.560Z,24.48
2023-02-19T01:13:25.371Z,24.63
2023-02-19T01:15:52.303Z,25.08
2023-02-19T01:18:19.193Z,23.55
2023-02-19T01:20:45.938Z,23.77
2023-02-19T01:23:13.558Z,23.90
2023-02-19T01:25:41.275Z,24.17
2023-02-19T01:28:08.204Z,27.65
2023-02-19T01:30:37.358Z,20.60
2023-02-19T01:33:07.005Z,18.17
2023-02-19T01:35:33.855Z,17.88
2023-02-19T01:38:00.680Z,17.88
2023-02-19T01:40:27.474Z,17.10
2023-02-19T01:42:54.300Z,17.02
2023-02-19T01:45:47.455Z,16.58
2023-02-19T01:48:20.018Z,15.93
2023-02-19T01:51:11.914Z,16.70
2023-02-19T01:53:40.397Z,16.08
2023-02-19T01:56:07.130Z,18.08
2023-02-19T01:58:34.717Z,15.93
2023-02-19T02:01:02.403Z,16.65
2023-02-19T02:03:29.233Z,15.80
2023-02-19T02:06:14.223Z,15.52
2023-02-19T02:08:59.413Z,16.27
2023-02-19T02:11:26.225Z,17.83
2023-02-19T02:13:52.991Z,22.98
2023-02-19T02:16:38.880Z,20.58
2023-02-19T02:19:14.713Z,20.25
2023-02-19T02:21:56.156Z,16.15
2023-02-19T02:24:34.702Z,14.77
2023-02-19T02:27:26.159Z,20.85
2023-02-19T02:30:14.290Z,21.60
2023-02-19T02:32:53.800Z,23.15
2023-02-19T02:35:30.207Z,22.35
2023-02-19T02:37:58.530Z,21.87
2023-02-19T02:40:25.370Z,21.17
2023-02-19T02:42:52.183Z,21.03
2023-02-19T02:45:37.653Z,20.30
2023-02-19T02:48:33.722Z,20.63
2023-02-19T02:51:02.185Z,19.87
2023-02-19T02:54:07.266Z,17.43
2023-02-19T02:56:34.790Z,15.20
2023-02-19T02:59:02.347Z,15.60
2023-02-19T03:01:52.131Z,17.07
2023-02-19T03:07:34.170Z,15.03
2023-02-19T03:10:00.916Z,15.77
2023-02-19T03:12:46.164Z,16.83
2023-02-19T03:15:31.546Z,16.77
2023-02-19T03:18:19.780Z,16.75
2023-02-19T03:20:49.171Z,15.18
2023-02-19T03:23:15.979Z,17.33
2023-02-19T03:26:01.231Z,15.68
2023-02-19T03:28:48.542Z,17.63
2023-02-19T03:31:17.450Z,17.00
2023-02-19T03:33:45.558Z,16.33
2023-02-19T03:36:12.978Z,16.80
2023-02-19T03:39:08.812Z,19.90
2023-02-19T03:41:49.474Z,18.13
2023-02-19T03:45:03.933Z,16.45
2023-02-19T03:47:33.963Z,16.75
2023-02-19T03:50:20.337Z,16.45
2023-02-19T03:53:11.387Z,17.98
2023-02-19T03:55:53.298Z,17.67
2023-02-19T03:58:25.004Z,19.00
2023-02-19T04:01:05.601Z,19.27
2023-02-19T04:03:50.104Z,17.37
2023-02-19T04:06:26.569Z,16.40
2023-02-19T04:08:54.952Z,18.08
2023-02-19T04:11:21.771Z,16.25
2023-02-19T04:14:00.260Z,17.17
2023-02-19T04:16:28.765Z,16.20
2023-02-19T04:18:58.497Z,16.27
2023-02-19T04:21:25.420Z,16.33
2023-02-19T04:23:52.277Z,16.67
2023-02-19T04:26:19.129Z,15.73
2023-02-19T04:28:46.680Z,16.10
2023-02-19T04:31:13.770Z,15.83
2023-02-19T04:33:40.745Z,14.50
2023-02-19T04:36:08.139Z,16.27
2023-02-19T04:38:37.853Z,14.33
2023-02-19T04:41:04.806Z,15.20
2023-02-19T04:43:31.738Z,15.37
2023-02-19T04:46:01.953Z,15.47
2023-02-19T04:48:29.024Z,14.40
2023-02-19T04:50:56.316Z,14.90
2023-02-19T04:53:23.126Z,14.80
2023-02-19T04:55:53.386Z,14.70
2023-02-19T04:58:21.010Z,14.50
2023-02-19T05:00:51.207Z,13.67
2023-02-19T05:03:17.920Z,11.83
2023-02-19T05:05:44.714Z,12.27
2023-02-19T05:08:11.426Z,13.37
2023-02-19T05:10:38.141Z,16.93
2023-02-19T05:13:05.077Z,13.63
2023-02-19T05:15:31.902Z,15.13
2023-02-19T05:17:58.649Z,15.27
2023-02-19T05:20:25.453Z,15.53
2023-02-19T05:22:52.241Z,13.93
2023-02-19T05:25:19.012Z,16.30
2023-02-19T05:27:45.946Z,14.65
2023-02-19T05:30:13.209Z,16.13
2023-02-19T05:32:40.083Z,17.20
2023-02-19T05:35:07.245Z,16.27
2023-02-19T05:37:34.288Z,14.63
2023-02-19T05:40:01.006Z,15.00
2023-02-19T05:42:27.941Z,15.73
2023-02-19T05:44:54.667Z,17.17
2023-02-19T05:47:21.403Z,14.53
2023-02-19T05:49:48.234Z,14.07
2023-02-19T05:52:14.994Z,14.77
2023-02-19T05:54:41.933Z,13.80
2023-02-19T05:57:08.738Z,14.73
2023-02-19T05:59:35.528Z,15.23
2023-02-19T06:02:02.331Z,14.00
2023-02-19T06:04:29.294Z,13.87
2023-02-19T06:06:56.116Z,13.70
2023-02-19T06:09:22.851Z,14.27
2023-02-19T06:11:49.638Z,14.05
2023-02-19T06:14:16.387Z,14.60
2023-02-19T06:16:43.195Z,13.55
2023-02-19T06:19:10.209Z,15.18
2023-02-19T06:21:37.249Z,14.50
2023-02-19T06:24:10.227Z,14.45
2023-02-19T06:26:37.043Z,14.90
2023-02-19T06:29:03.871Z,17.70
2023-02-19T06:31:30.766Z,15.20
2023-02-19T06:33:57.600Z,14.07
2023-02-19T06:36:25.037Z,13.77
2023-02-19T06:38:51.902Z,14.40
2023-02-19T06:41:18.709Z,14.68
2023-02-19T06:43:46.646Z,14.50
2023-02-19T06:46:14.051Z,15.63
2023-02-19T06:48:41.686Z,14.87
2023-02-19T06:51:15.712Z,15.27
2023-02-19T06:53:42.885Z,16.97
2023-02-19T06:56:25.739Z,18.00
2023-02-19T06:58:54.224Z,17.83
2023-02-19T07:01:21.816Z,17.40
2023-02-19T07:03:48.636Z,16.90
2023-02-19T07:06:15.461Z,15.63
2023-02-19T07:08:42.161Z,15.68
2023-02-19T07:11:09.172Z,15.33
2023-02-19T07:13:36.510Z,15.23
2023-02-19T07:16:08.970Z,13.90
2023-02-19T07:18:35.802Z,14.23
2023-02-19T07:21:06.844Z,13.47
2023-02-19T07:23:33.604Z,14.90
2023-02-19T07:26:00.474Z,19.07
2023-02-19T07:28:27.347Z,13.37
2023-02-19T07:30:54.192Z,13.02
2023-02-19T07:33:20.913Z,12.83
2023-02-19T07:35:48.367Z,12.57
2023-02-19T07:38:18.771Z,13.27
2023-02-19T07:40:59.474Z,12.77
2023-02-19T07:43:27.277Z,15.98
2023-02-19T07:45:54.043Z,13.00
2023-02-19T07:48:20.986Z,14.33
2023-02-19T07:50:54.495Z,13.45
2023-02-19T07:53:21.510Z,14.27
2023-02-19T07:55:48.280Z,14.05
2023-02-19T07:58:14.992Z,13.40
2023-02-19T08:00:41.882Z,13.17
2023-02-19T08:03:09.231Z,13.10
2023-02-19T08:05:40.467Z,14.00
2023-02-19T08:08:08.518Z,13.90
2023-02-19T08:10:53.772Z,12.50
2023-02-19T08:13:22.693Z,13.57
2023-02-19T08:15:50.815Z,12.67
2023-02-19T08:18:18.578Z,12.07
2023-02-19T08:20:45.508Z,13.45
2023-02-19T08:23:12.568Z,14.45
2023-02-19T08:25:39.829Z,13.17
2023-02-19T08:28:06.996Z,16.20
2023-02-19T08:30:34.054Z,12.10
2023-02-19T08:33:02.273Z,13.37
2023-02-19T08:35:29.577Z,10.57
2023-02-19T08:37:57.488Z,13.05
2023-02-19T08:40:24.920Z,11.30
2023-02-19T08:42:51.871Z,12.48
2023-02-19T08:45:18.749Z,14.15
2023-02-19T08:47:45.729Z,11.82
2023-02-19T08:50:12.931Z,13.23
2023-02-19T08:52:39.766Z,13.40
2023-02-19T08:55:06.967Z,13.00
2023-02-19T08:57:37.838Z,13.05
2023-02-19T09:00:06.028Z,14.70
2023-02-19T09:02:33.038Z,14.20
2023-02-19T09:04:59.903Z,13.65
2023-02-19T09:07:26.860Z,13.45
2023-02-19T09:09:53.802Z,14.27
2023-02-19T09:12:20.804Z,14.07
2023-02-19T09:14:47.890Z,17.90
2023-02-19T09:17:14.694Z,15.27
2023-02-19T09:19:41.645Z,16.27
2023-02-19T09:22:08.416Z,13.60
2023-02-19T09:24:35.189Z,12.40
2023-02-19T09:27:02.059Z,13.55
2023-02-19T09:29:29.026Z,13.35
2023-02-19T09:31:57.288Z,13.63
2023-02-19T09:34:25.106Z,12.98
2023-02-19T09:36:52.144Z,12.77
2023-02-19T09:39:18.981Z,12.02
2023-02-19T09:41:57.330Z,12.63
2023-02-19T09:44:34.697Z,11.50
2023-02-19T09:47:02.054Z,15.50
2023-02-19T09:49:33.840Z,12.80
2023-02-19T09:52:13.044Z,13.40
2023-02-19T09:54:39.857Z,13.23
2023-02-19T09:57:06.696Z,12.80
2023-02-19T09:59:41.239Z,12.13
2023-02-19T10:02:30.489Z,11.30
2023-02-19T10:04:57.361Z,11.95
2023-02-19T10:07:25.826Z,9.73
2023-02-19T10:10:23.772Z,13.18
2023-02-19T10:12:52.647Z,12.23
2023-02-19T10:15:39.356Z,12.73
2023-02-19T10:18:08.833Z,11.35
2023-02-19T10:20:37.638Z,11.43
2023-02-19T10:23:06.161Z,13.93
2023-02-19T10:25:33.753Z,11.77
2023-02-19T10:28:01.041Z,11.30
2023-02-19T10:30:32.985Z,12.38
2023-02-19T10:33:21.153Z,14.80
2023-02-19T10:36:05.544Z,12.40
2023-02-19T10:38:45.999Z,11.15
2023-02-19T10:41:23.362Z,11.00
2023-02-19T10:43:54.871Z,11.57
2023-02-19T10:46:29.726Z,11.98
2023-02-19T10:48:58.734Z,10.88
2023-02-19T10:51:39.135Z,11.00
2023-02-19T10:54:24.466Z,12.60
2023-02-19T10:56:51.240Z,11.25
2023-02-19T10:59:30.201Z,11.50
2023-02-19T11:01:57.956Z,12.15
2023-02-19T11:04:26.237Z,11.60
2023-02-19T11:06:53.200Z,11.20
2023-02-19T11:09:38.931Z,10.43
2023-02-19T11:12:08.343Z,11.45
2023-02-19T11:14:35.272Z,10.95
2023-02-19T11:17:05.046Z,10.10
2023-02-19T11:19:36.918Z,11.02
2023-02-19T11:22:42.160Z,10.70
2023-02-19T11:25:14.963Z,12.70
2023-02-19T11:28:10.659Z,13.75
2023-02-19T11:30:38.745Z,10.90
2023-02-19T11:33:17.863Z,12.43
2023-02-19T11:35:44.729Z,12.35
2023-02-19T11:38:13.010Z,13.27
2023-02-19T11:40:41.377Z,15.93
2023-02-19T11:43:26.786Z,12.10
2023-02-19T11:46:24.959Z,11.73
2023-02-19T11:49:10.230Z,14.10
2023-02-19T11:52:01.777Z,11.95
2023-02-19T11:54:34.309Z,13.35
2023-02-19T11:57:10.418Z,13.05
2023-02-19T12:00:03.295Z,13.13
2023-02-19T12:03:04.072Z,15.05
2023-02-19T12:05:56.751Z,14.23
2023-02-19T12:08:38.430Z,12.98
2023-02-19T12:11:12.401Z,13.10
2023-02-19T12:14:09.225Z,12.40
2023-02-19T12:16:38.866Z,13.00
2023-02-19T12:19:18.817Z,12.95
2023-02-19T12:22:09.903Z,14.43
2023-02-19T12:25:11.568Z,12.00
2023-02-19T12:27:47.419Z,13.32
2023-02-19T12:30:23.206Z,11.13
2023-02-19T12:33:12.070Z,12.90
2023-02-19T12:35:48.164Z,12.30
2023-02-19T12:38:23.435Z,11.13
2023-02-19T12:41:17.994Z,11.30
2023-02-19T12:44:08.648Z,11.65
2023-02-19T12:46:37.833Z,14.40
2023-02-19T12:51:55.349Z,12.70
2023-02-19T12:54:34.659Z,11.88
2023-02-19T12:57:02.583Z,10.93
2023-02-19T12:59:55.536Z,10.68
2023-02-19T13:02:44.351Z,12.98
2023-02-19T13:05:39.006Z,10.27
2023-02-19T13:08:21.548Z,11.15
2023-02-19T13:10:51.991Z,9.50
2023-02-19T13:13:42.479Z,13.52
2023-02-19T13:16:15.104Z,10.88
2023-02-19T13:18:52.501Z,12.75
2023-02-19T13:21:39.938Z,9.50
2023-02-19T13:24:09.519Z,9.63
2023-02-19T13:27:08.735Z,9.02
2023-02-19T13:32:17.244Z,10.38
2023-02-19T13:35:29.940Z,11.57
2023-02-19T13:37:59.880Z,14.88
2023-02-19T13:40:37.627Z,11.43
2023-02-19T13:43:08.690Z,12.07
2023-02-19T13:45:39.382Z,14.00
2023-02-19T13:48:24.621Z,11.90
2023-02-19T13:51:11.908Z,10.50
2023-02-19T13:53:51.998Z,11.60
2023-02-19T13:56:34.345Z,13.75
2023-02-19T13:59:22.362Z,11.25
2023-02-19T14:01:52.058Z,12.88
2023-02-19T14:04:24.391Z,10.52
2023-02-19T14:07:03.332Z,11.20
2023-02-19T14:09:44.075Z,11.02
2023-02-19T14:12:10.795Z,11.38
2023-02-19T14:14:49.676Z,16.35
2023-02-19T14:17:38.313Z,11.15
2023-02-19T14:20:17.355Z,12.48
2023-02-19T14:23:01.721Z,12.63
2023-02-19T14:25:32.030Z,14.88
2023-02-19T14:28:11.734Z,13.80
2023-02-19T14:30:50.015Z,11.65
2023-02-19T14:33:18.178Z,11.82
2023-02-19T14:35:46.669Z,11.68
2023-02-19T14:38:26.366Z,12.10
2023-02-19T14:40:53.298Z,11.82
2023-02-19T14:43:21.079Z,11.60
2023-02-19T14:45:50.375Z,11.88
2023-02-19T14:48:22.680Z,10.70
2023-02-19T14:50:51.341Z,11.77
2023-02-19T14:53:18.109Z,10.53
2023-02-19T14:55:45.436Z,13.35
2023-02-19T14:58:44.681Z,10.70
2023-02-19T15:01:27.748Z,11.82
2023-02-19T15:03:55.382Z,10.52
2023-02-19T15:06:23.775Z,11.70
2023-02-19T15:08:56.494Z,11.05
2023-02-19T15:11:24.775Z,11.20
2023-02-19T15:14:15.227Z,11.98
2023-02-19T15:16:41.929Z,11.90
2023-02-19T15:19:09.487Z,11.52
2023-02-19T15:21:39.397Z,11.73
2023-02-19T15:24:06.397Z,12.15
2023-02-19T15:26:43.148Z,11.65
2023-02-19T15:29:14.105Z,11.40
2023-02-19T15:31:57.832Z,11.57
2023-02-19T15:34:26.158Z,11.18
2023-02-19T15:36:58.665Z,12.15
2023-02-19T15:39:34.303Z,11.32
2023-02-19T15:42:02.268Z,12.40
2023-02-19T15:44:43.385Z,14.68
2023-02-19T15:47:15.798Z,11.82
2023-02-19T15:50:08.837Z,14.02
2023-02-19T15:52:37.827Z,16.13
2023-02-19T15:55:04.481Z,11.93
2023-02-19T15:57:35.323Z,14.48
2023-02-19T16:00:46.831Z,12.60
2023-02-19T16:03:19.826Z,13.52
2023-02-19T16:05:47.099Z,15.38
2023-02-19T16:08:19.542Z,12.05
2023-02-19T16:10:54.490Z,12.80
2023-02-19T16:13:26.678Z,15.00
2023-02-19T16:16:10.856Z,12.25
2023-02-19T16:18:37.679Z,12.48
2023-02-19T16:21:07.732Z,11.45
2023-02-19T16:23:34.671Z,12.45
2023-02-19T16:26:02.180Z,12.60
2023-02-19T16:28:30.616Z,12.80
2023-02-19T16:31:04.606Z,15.38
2023-02-19T16:33:37.185Z,13.32
2023-02-19T16:36:36.021Z,12.65
2023-02-19T16:39:09.339Z,16.75
2023-02-19T16:41:48.720Z,17.30
2023-02-19T16:44:21.434Z,15.45
2023-02-19T16:46:49.837Z,17.92
2023-02-19T16:49:16.677Z,15.80
2023-02-19T16:51:44.595Z,18.10
2023-02-19T16:54:11.674Z,18.70
2023-02-19T16:56:38.603Z,17.65
2023-02-19T16:59:09.645Z,17.73
2023-02-19T17:01:36.585Z,18.08
2023-02-19T17:04:05.350Z,15.77
2023-02-19T17:06:32.976Z,16.08
2023-02-19T17:08:59.927Z,18.55
2023-02-19T17:11:26.767Z,21.55
2023-02-19T17:13:53.471Z,16.52
2023-02-19T17:16:25.175Z,16.45
2023-02-19T17:18:52.100Z,16.58
2023-02-19T17:21:23.154Z,16.30
2023-02-19T17:23:51.534Z,17.67
2023-02-19T17:26:20.298Z,15.43
2023-02-19T17:28:47.179Z,16.88
2023-02-19T17:31:14.812Z,15.98
2023-02-19T17:33:41.709Z,16.73
2023-02-19T17:36:08.827Z,18.25
2023-02-19T17:38:35.643Z,16.52
2023-02-19T17:41:02.459Z,16.35
2023-02-19T17:43:29.252Z,17.42
2023-02-19T17:45:56.178Z,16.95
2023-02-19T17:48:25.226Z,20.27
2023-02-19T17:50:52.391Z,16.92
2023-02-19T17:53:19.370Z,18.05
2023-02-19T17:55:46.289Z,16.73
2023-02-19T17:58:13.430Z,17.15
2023-02-19T18:00:40.234Z,18.15
2023-02-19T18:03:10.653Z,16.50
2023-02-19T18:05:37.464Z,16.17
2023-02-19T18:08:04.325Z,22.48
2023-02-19T18:10:31.221Z,14.75
2023-02-19T18:12:57.943Z,16.00
2023-02-19T18:15:27.124Z,15.68
2023-02-19T18:17:54.670Z,15.25
2023-02-19T18:20:28.465Z,16.45
2023-02-19T18:22:55.508Z,14.88
2023-02-19T18:25:22.966Z,18.70
2023-02-19T18:27:49.919Z,16.95
2023-02-19T18:30:19.008Z,17.88
2023-02-19T18:32:48.175Z,16.60
2023-02-19T18:35:15.870Z,17.33
2023-02-19T18:37:42.940Z,16.20
2023-02-19T18:40:10.517Z,19.20
2023-02-19T18:42:37.466Z,32.08
2023-02-19T18:45:04.556Z,18.88
2023-02-19T18:47:31.386Z,17.88
2023-02-19T18:49:58.638Z,20.67
2023-02-19T18:52:26.472Z,19.15
2023-02-19T18:54:56.124Z,19.27
2023-02-19T18:57:23.695Z,20.20
2023-02-19T18:59:50.677Z,19.27
2023-02-19T19:02:17.758Z,18.80
2023-02-19T19:04:51.250Z,19.00
2023-02-19T19:07:18.926Z,22.52
2023-02-19T19:09:45.698Z,17.70
2023-02-19T19:12:14.950Z,19.15
2023-02-19T19:14:41.729Z,18.73
2023-02-19T19:17:08.614Z,20.15
2023-02-19T19:19:35.453Z,18.15
2023-02-19T19:22:02.259Z,17.58
2023-02-19T19:24:29.010Z,17.08
2023-02-19T19:26:55.876Z,16.10
2023-02-19T19:29:23.156Z,14.70
2023-02-19T19:31:50.244Z,16.23
2023-02-19T19:34:17.363Z,19.13
2023-02-19T19:36:44.572Z,17.17
2023-02-19T19:39:11.435Z,15.40
2023-02-19T19:41:38.292Z,17.67
2023-02-19T19:44:05.631Z,16.92
2023-02-19T19:46:34.325Z,16.63
2023-02-19T19:49:01.371Z,17.38
2023-02-19T19:51:34.417Z,15.48
2023-02-19T19:54:03.193Z,15.25
2023-02-19T19:56:30.387Z,15.13
2023-02-19T19:58:57.319Z,20.15
2023-02-19T20:01:24.153Z,15.52
2023-02-19T20:03:53.785Z,16.00
2023-02-19T20:06:30.996Z,15.02
2023-02-19T20:08:58.086Z,14.45
2023-02-19T20:11:24.839Z,17.08
2023-02-19T20:13:51.801Z,15.57
2023-02-19T20:16:24.436Z,15.43
2023-02-19T20:18:51.159Z,14.77
2023-02-19T20:21:18.011Z,15.40
2023-02-19T20:23:45.069Z,16.42
2023-02-19T20:26:11.877Z,15.18
2023-02-19T20:28:38.732Z,17.92
2023-02-19T20:31:05.494Z,16.63
2023-02-19T20:33:32.269Z,15.38
2023-02-19T20:35:59.515Z,15.10
2023-02-19T20:38:26.324Z,15.82
2023-02-19T20:40:53.164Z,15.07
2023-02-19T20:43:19.993Z,16.05
2023-02-19T20:45:47.907Z,13.68
2023-02-19T20:48:18.129Z,13.60
2023-02-19T20:50:45.030Z,13.45
2023-02-19T20:53:11.811Z,13.85
2023-02-19T20:55:38.843Z,12.32
2023-02-19T20:58:05.688Z,12.63
2023-02-19T21:00:32.443Z,15.73
2023-02-19T21:02:59.279Z,13.82
2023-02-19T21:05:26.286Z,13.30
2023-02-19T21:07:53.082Z,14.82
2023-02-19T21:10:19.848Z,15.52
2023-02-19T21:12:46.809Z,15.65
2023-02-19T21:15:14.837Z,20.05
2023-02-19T21:17:44.869Z,15.63
2023-02-19T21:20:11.975Z,17.05
2023-02-19T21:22:38.802Z,16.83
2023-02-19T21:25:05.930Z,15.63
2023-02-19T21:27:32.847Z,14.25
2023-02-19T21:29:59.575Z,12.43
2023-02-19T21:32:26.469Z,12.65
2023-02-19T21:34:53.507Z,14.38
2023-02-19T21:37:20.318Z,12.95
2023-02-19T21:39:47.213Z,12.73
2023-02-19T21:42:14.108Z,13.73
2023-02-19T21:44:42.985Z,13.65
2023-02-19T21:47:11.199Z,13.18
2023-02-19T21:49:38.247Z,13.80
2023-02-19T21:52:05.095Z,14.00
2023-02-19T21:54:32.245Z,15.75
2023-02-19T21:57:01.938Z,14.35
2023-02-19T22:01:57.130Z,12.00
2023-02-19T22:04:27.844Z,14.50
2023-02-19T22:06:55.427Z,11.35
2023-02-19T22:09:22.173Z,10.57
2023-02-19T22:11:49.042Z,11.90
2023-02-19T22:14:15.915Z,10.90
2023-02-19T22:16:42.719Z,11.60
2023-02-19T22:19:09.822Z,12.10
2023-02-19T22:21:36.610Z,12.60
2023-02-19T22:24:03.981Z,10.48
2023-02-19T22:26:36.028Z,10.93
2023-02-19T22:29:07.351Z,11.02
2023-02-19T22:31:34.476Z,13.57
2023-02-19T22:34:01.416Z,12.75
2023-02-19T22:36:31.107Z,11.02
2023-02-19T22:41:24.854Z,12.55
2023-02-19T22:43:54.415Z,11.52
2023-02-19T22:46:24.817Z,13.18
2023-02-19T22:48:51.638Z,12.45
2023-02-19T22:51:20.229Z,13.07
2023-02-19T22:53:51.342Z,12.68
2023-02-19T22:56:19.371Z,14.32
2023-02-19T22:58:46.194Z,12.80
2023-02-19T23:01:13.320Z,12.15
2023-02-19T23:03:53.001Z,12.23
2023-02-19T23:08:54.412Z,12.95
2023-02-19T23:11:29.006Z,13.40
2023-02-19T23:13:55.911Z,13.07
2023-02-19T23:16:22.707Z,14.55
2023-02-19T23:18:49.845Z,12.88
2023-02-19T23:21:16.697Z,13.70
2023-02-19T23:23:43.783Z,15.20
2023-02-19T23:26:10.821Z,14.10
2023-02-19T23:28:39.577Z,13.90
2023-02-19T23:31:06.775Z,15.23
2023-02-19T23:33:33.937Z,12.93
2023-02-19T23:36:00.780Z,11.02
2023-02-19T23:38:27.695Z,19.02
2023-02-19T23:40:54.482Z,18.85
2023-02-19T23:43:21.977Z,20.83
2023-02-19T23:45:49.869Z,16.92
2023-02-19T23:48:16.963Z,13.15
2023-02-19T23:50:43.800Z,14.23
2023-02-19T23:53:10.561Z,12.52
2023-02-19T23:55:37.380Z,11.70
2023-02-19T23:58:04.103Z,15.73
